sensor_id;sensor_type;location;lat;lon;timestamp;temperature;humidity
6174;DHT22;3120;48.796;9.796;2022-09-23T00:01:53;6.20;99.90
6174;DHT22;3120;48.796;9.796;2022-09-23T00:04:19;6.10;99.90
6174;DHT22;3120;48.796;9.796;2022-09-23T00:06:44;6.20;99.90
6174;DHT22;3120;48.796;9.796;2022-09-23T00:09:10;6.70;99.90
6174;DHT22;3120;48.796;9.796;2022-09-23T00:11:36;6.10;99.90
6174;DHT22;3120;48.796;9.796;2022-09-23T00:14:02;6.10;99.90
6174;DHT22;3120;48.796;9.796;2022-09-23T00:16:30;6.10;99.90
6174;DHT22;3120;48.796;9.796;2022-09-23T00:18:57;6.10;99.90
6174;DHT22;3120;48.796;9.796;2022-09-23T00:21:23;6.00;99.90
6174;DHT22;3120;48.796;9.796;2022-09-23T00:23:49;6.00;99.90
6174;DHT22;3120;48.796;9.796;2022-09-23T00:26:17;6.00;99.90
6174;DHT22;3120;48.796;9.796;2022-09-23T00:28:43;6.00;99.90
6174;DHT22;3120;48.796;9.796;2022-09-23T00:31:27;6.00;99.90
6174;DHT22;3120;48.796;9.796;2022-09-23T00:34:18;6.00;99.90
6174;DHT22;3120;48.796;9.796;2022-09-23T00:36:43;6.00;99.90
6174;DHT22;3120;48.796;9.796;2022-09-23T00:39:09;5.90;99.90
6174;DHT22;3120;48.796;9.796;2022-09-23T00:41:35;5.90;99.90
6174;DHT22;3120;48.796;9.796;2022-09-23T00:44:37;6.00;99.90
6174;DHT22;3120;48.796;9.796;2022-09-23T00:46:47;5.90;99.90
6174;DHT22;3120;48.796;9.796;2022-09-23T00:49:20;6.00;99.90
6174;DHT22;3120;48.796;9.796;2022-09-23T00:51:53;5.90;99.90
6174;DHT22;3120;48.796;9.796;2022-09-23T00:54:21;5.90;99.90
6174;DHT22;3120;48.796;9.796;2022-09-23T00:56:48;5.90;99.90
6174;DHT22;3120;48.796;9.796;2022-09-23T00:59:14;5.90;99.90
6174;DHT22;3120;48.796;9.796;2022-09-23T01:01:41;5.90;99.90
6174;DHT22;3120;48.796;9.796;2022-09-23T01:04:07;5.90;99.90
6174;DHT22;3120;48.796;9.796;2022-09-23T01:06:32;5.90;99.90
6174;DHT22;3120;48.796;9.796;2022-09-23T01:08:58;5.80;99.90
6174;DHT22;3120;48.796;9.796;2022-09-23T01:11:35;5.90;99.90
6174;DHT22;3120;48.796;9.796;2022-09-23T01:14:31;5.90;99.90
6174;DHT22;3120;48.796;9.796;2022-09-23T01:20:02;5.90;99.90
6174;DHT22;3120;48.796;9.796;2022-09-23T01:22:56;5.90;99.90
6174;DHT22;3120;48.796;9.796;2022-09-23T01:25:37;5.90;99.90
6174;DHT22;3120;48.796;9.796;2022-09-23T01:36:41;7.10;99.90
6174;DHT22;3120;48.796;9.796;2022-09-23T01:39:10;5.80;99.90
6174;DHT22;3120;48.796;9.796;2022-09-23T01:41:48;5.70;99.90
6174;DHT22;3120;48.796;9.796;2022-09-23T01:44:29;5.80;99.90
6174;DHT22;3120;48.796;9.796;2022-09-23T01:50:04;5.70;99.90
6174;DHT22;3120;48.796;9.796;2022-09-23T01:52:57;5.70;99.90
6174;DHT22;3120;48.796;9.796;2022-09-23T01:55:38;5.70;99.90
6174;DHT22;3120;48.796;9.796;2022-09-23T01:58:36;5.60;99.90
6174;DHT22;3120;48.796;9.796;2022-09-23T02:01:04;5.60;99.90
6174;DHT22;3120;48.796;9.796;2022-09-23T02:03:52;5.60;99.90
6174;DHT22;3120;48.796;9.796;2022-09-23T02:06:22;5.60;99.90
6174;DHT22;3120;48.796;9.796;2022-09-23T02:08:58;6.00;99.90
6174;DHT22;3120;48.796;9.796;2022-09-23T02:11:25;5.50;99.90
6174;DHT22;3120;48.796;9.796;2022-09-23T02:16:38;5.50;99.90
6174;DHT22;3120;48.796;9.796;2022-09-23T02:19:22;5.40;99.90
6174;DHT22;3120;48.796;9.796;2022-09-23T02:21:57;5.50;99.90
6174;DHT22;3120;48.796;9.796;2022-09-23T02:24:36;5.50;99.90
6174;DHT22;3120;48.796;9.796;2022-09-23T02:28:04;5.60;99.90
6174;DHT22;3120;48.796;9.796;2022-09-23T02:30:22;5.50;99.90
6174;DHT22;3120;48.796;9.796;2022-09-23T02:33:05;5.60;99.90
6174;DHT22;3120;48.796;9.796;2022-09-23T02:40:58;5.60;99.90
6174;DHT22;3120;48.796;9.796;2022-09-23T02:43:26;5.50;99.90
6174;DHT22;3120;48.796;9.796;2022-09-23T02:46:00;5.50;99.90
6174;DHT22;3120;48.796;9.796;2022-09-23T02:48:55;5.50;99.90
6174;DHT22;3120;48.796;9.796;2022-09-23T02:51:24;5.50;99.90
6174;DHT22;3120;48.796;9.796;2022-09-23T02:53:50;5.50;99.90
6174;DHT22;3120;48.796;9.796;2022-09-23T02:56:19;5.50;99.90
6174;DHT22;3120;48.796;9.796;2022-09-23T02:58:50;5.50;99.90
6174;DHT22;3120;48.796;9.796;2022-09-23T03:06:46;5.50;99.90
6174;DHT22;3120;48.796;9.796;2022-09-23T03:09:39;5.50;99.90
6174;DHT22;3120;48.796;9.796;2022-09-23T03:12:14;5.50;99.90
6174;DHT22;3120;48.796;9.796;2022-09-23T03:20:35;5.40;99.90
6174;DHT22;3120;48.796;9.796;2022-09-23T03:23:06;5.90;99.90
6174;DHT22;3120;48.796;9.796;2022-09-23T03:25:36;5.40;99.90
6174;DHT22;3120;48.796;9.796;2022-09-23T03:28:03;5.40;99.90
6174;DHT22;3120;48.796;9.796;2022-09-23T03:30:31;5.30;99.90
6174;DHT22;3120;48.796;9.796;2022-09-23T03:33:01;7.30;99.90
6174;DHT22;3120;48.796;9.796;2022-09-23T03:35:30;5.20;99.90
6174;DHT22;3120;48.796;9.796;2022-09-23T03:38:14;7.30;99.90
6174;DHT22;3120;48.796;9.796;2022-09-23T03:40:43;5.20;99.90
6174;DHT22;3120;48.796;9.796;2022-09-23T03:43:12;5.20;99.90
6174;DHT22;3120;48.796;9.796;2022-09-23T03:45:38;5.20;99.90
6174;DHT22;3120;48.796;9.796;2022-09-23T03:48:05;5.20;99.90
6174;DHT22;3120;48.796;9.796;2022-09-23T03:50:32;5.10;99.90
6174;DHT22;3120;48.796;9.796;2022-09-23T03:52:59;5.10;99.90
6174;DHT22;3120;48.796;9.796;2022-09-23T03:55:25;5.10;99.90
6174;DHT22;3120;48.796;9.796;2022-09-23T03:57:51;5.10;99.90
6174;DHT22;3120;48.796;9.796;2022-09-23T04:00:17;5.20;99.90
6174;DHT22;3120;48.796;9.796;2022-09-23T04:02:42;5.10;99.90
6174;DHT22;3120;48.796;9.796;2022-09-23T04:05:10;5.10;99.90
6174;DHT22;3120;48.796;9.796;2022-09-23T04:07:35;5.10;99.90
6174;DHT22;3120;48.796;9.796;2022-09-23T04:10:01;5.10;99.90
6174;DHT22;3120;48.796;9.796;2022-09-23T04:12:27;5.10;99.90
6174;DHT22;3120;48.796;9.796;2022-09-23T04:14:52;5.10;99.90
6174;DHT22;3120;48.796;9.796;2022-09-23T04:17:18;5.20;99.90
6174;DHT22;3120;48.796;9.796;2022-09-23T04:19:43;5.10;99.90
6174;DHT22;3120;48.796;9.796;2022-09-23T04:22:09;5.10;99.90
6174;DHT22;3120;48.796;9.796;2022-09-23T04:24:35;5.20;99.90
6174;DHT22;3120;48.796;9.796;2022-09-23T04:27:01;5.10;99.90
6174;DHT22;3120;48.796;9.796;2022-09-23T04:29:27;5.10;99.90
6174;DHT22;3120;48.796;9.796;2022-09-23T04:31:52;5.10;99.90
6174;DHT22;3120;48.796;9.796;2022-09-23T04:34:18;5.10;99.90
6174;DHT22;3120;48.796;9.796;2022-09-23T04:36:45;7.30;99.90
6174;DHT22;3120;48.796;9.796;2022-09-23T04:39:12;5.00;99.90
6174;DHT22;3120;48.796;9.796;2022-09-23T04:41:38;5.00;99.90
6174;DHT22;3120;48.796;9.796;2022-09-23T04:44:04;5.00;99.90
6174;DHT22;3120;48.796;9.796;2022-09-23T04:46:30;5.00;99.90
6174;DHT22;3120;48.796;9.796;2022-09-23T04:48:56;4.90;99.90
6174;DHT22;3120;48.796;9.796;2022-09-23T04:51:23;5.10;99.90
6174;DHT22;3120;48.796;9.796;2022-09-23T04:53:50;5.00;99.90
6174;DHT22;3120;48.796;9.796;2022-09-23T04:56:18;4.90;99.90
6174;DHT22;3120;48.796;9.796;2022-09-23T04:58:45;4.90;99.90
6174;DHT22;3120;48.796;9.796;2022-09-23T05:03:41;4.90;99.90
6174;DHT22;3120;48.796;9.796;2022-09-23T05:06:07;4.80;99.90
6174;DHT22;3120;48.796;9.796;2022-09-23T05:08:34;7.10;99.90
6174;DHT22;3120;48.796;9.796;2022-09-23T05:11:02;4.90;99.90
6174;DHT22;3120;48.796;9.796;2022-09-23T05:13:32;4.90;99.90
6174;DHT22;3120;48.796;9.796;2022-09-23T05:15:59;4.90;99.90
6174;DHT22;3120;48.796;9.796;2022-09-23T05:18:32;4.90;99.90
6174;DHT22;3120;48.796;9.796;2022-09-23T05:21:01;4.90;99.90
6174;DHT22;3120;48.796;9.796;2022-09-23T05:23:27;5.00;99.90
6174;DHT22;3120;48.796;9.796;2022-09-23T05:26:06;4.90;99.90
6174;DHT22;3120;48.796;9.796;2022-09-23T05:28:32;4.90;99.90
6174;DHT22;3120;48.796;9.796;2022-09-23T05:31:09;4.90;99.90
6174;DHT22;3120;48.796;9.796;2022-09-23T05:33:41;4.90;99.90
6174;DHT22;3120;48.796;9.796;2022-09-23T05:36:07;4.90;99.90
6174;DHT22;3120;48.796;9.796;2022-09-23T05:38:33;5.00;99.90
6174;DHT22;3120;48.796;9.796;2022-09-23T05:41:04;4.90;99.90
6174;DHT22;3120;48.796;9.796;2022-09-23T05:43:30;4.90;99.90
6174;DHT22;3120;48.796;9.796;2022-09-23T05:48:29;5.00;99.90
6174;DHT22;3120;48.796;9.796;2022-09-23T05:50:55;5.10;99.90
6174;DHT22;3120;48.796;9.796;2022-09-23T05:53:21;5.10;99.90
6174;DHT22;3120;48.796;9.796;2022-09-23T05:55:46;5.20;99.90
6174;DHT22;3120;48.796;9.796;2022-09-23T05:58:12;5.20;99.90
6174;DHT22;3120;48.796;9.796;2022-09-23T06:00:40;5.20;99.90
6174;DHT22;3120;48.796;9.796;2022-09-23T06:03:11;5.30;99.90
6174;DHT22;3120;48.796;9.796;2022-09-23T06:05:37;5.40;99.90
6174;DHT22;3120;48.796;9.796;2022-09-23T06:08:02;5.50;99.90
6174;DHT22;3120;48.796;9.796;2022-09-23T06:10:28;5.50;99.90
6174;DHT22;3120;48.796;9.796;2022-09-23T06:12:54;5.60;99.90
6174;DHT22;3120;48.796;9.796;2022-09-23T06:15:20;5.60;99.90
6174;DHT22;3120;48.796;9.796;2022-09-23T06:17:48;5.70;99.90
6174;DHT22;3120;48.796;9.796;2022-09-23T06:20:14;5.80;99.90
6174;DHT22;3120;48.796;9.796;2022-09-23T06:22:40;5.80;99.90
6174;DHT22;3120;48.796;9.796;2022-09-23T06:25:06;5.90;99.90
6174;DHT22;3120;48.796;9.796;2022-09-23T06:27:31;6.00;99.90
6174;DHT22;3120;48.796;9.796;2022-09-23T06:29:57;6.10;99.90
6174;DHT22;3120;48.796;9.796;2022-09-23T06:32:23;6.20;99.90
6174;DHT22;3120;48.796;9.796;2022-09-23T06:34:48;6.30;99.90
6174;DHT22;3120;48.796;9.796;2022-09-23T06:37:14;6.30;99.90
6174;DHT22;3120;48.796;9.796;2022-09-23T06:39:40;6.50;99.90
6174;DHT22;3120;48.796;9.796;2022-09-23T06:42:05;6.50;99.90
6174;DHT22;3120;48.796;9.796;2022-09-23T06:44:31;6.60;99.90
6174;DHT22;3120;48.796;9.796;2022-09-23T06:46:57;6.80;99.90
6174;DHT22;3120;48.796;9.796;2022-09-23T06:49:23;6.80;99.90
6174;DHT22;3120;48.796;9.796;2022-09-23T06:51:48;6.90;99.90
6174;DHT22;3120;48.796;9.796;2022-09-23T06:54:14;7.00;99.90
6174;DHT22;3120;48.796;9.796;2022-09-23T06:56:42;7.80;99.90
6174;DHT22;3120;48.796;9.796;2022-09-23T06:59:11;7.30;99.90
6174;DHT22;3120;48.796;9.796;2022-09-23T07:01:37;7.40;99.90
6174;DHT22;3120;48.796;9.796;2022-09-23T07:04:03;7.50;99.90
6174;DHT22;3120;48.796;9.796;2022-09-23T07:06:29;7.60;99.90
6174;DHT22;3120;48.796;9.796;2022-09-23T07:11:30;7.90;99.90
6174;DHT22;3120;48.796;9.796;2022-09-23T07:13:55;8.20;99.90
6174;DHT22;3120;48.796;9.796;2022-09-23T07:16:21;8.20;99.90
6174;DHT22;3120;48.796;9.796;2022-09-23T07:18:47;8.70;99.90
6174;DHT22;3120;48.796;9.796;2022-09-23T07:21:17;8.70;98.60
6174;DHT22;3120;48.796;9.796;2022-09-23T07:23:45;8.90;14.20
6174;DHT22;3120;48.796;9.796;2022-09-23T07:26:12;9.10;1.00
6174;DHT22;3120;48.796;9.796;2022-09-23T07:28:38;9.20;1.00
6174;DHT22;3120;48.796;9.796;2022-09-23T07:31:06;10.50;1.00
6174;DHT22;3120;48.796;9.796;2022-09-23T07:33:40;9.80;1.00
6174;DHT22;3120;48.796;9.796;2022-09-23T07:36:10;10.10;1.00
6174;DHT22;3120;48.796;9.796;2022-09-23T07:38:37;10.50;99.90
6174;DHT22;3120;48.796;9.796;2022-09-23T07:41:06;10.70;1.00
6174;DHT22;3120;48.796;9.796;2022-09-23T07:43:33;10.90;99.90
6174;DHT22;3120;48.796;9.796;2022-09-23T07:46:01;11.00;2.60
6174;DHT22;3120;48.796;9.796;2022-09-23T07:48:29;11.10;1.00
6174;DHT22;3120;48.796;9.796;2022-09-23T07:50:55;11.30;99.90
6174;DHT22;3120;48.796;9.796;2022-09-23T07:53:21;12.00;1.00
6174;DHT22;3120;48.796;9.796;2022-09-23T07:55:55;11.50;99.90
6174;DHT22;3120;48.796;9.796;2022-09-23T07:58:21;11.70;1.00
6174;DHT22;3120;48.796;9.796;2022-09-23T08:00:47;11.90;1.00
6174;DHT22;3120;48.796;9.796;2022-09-23T08:03:18;12.50;99.90
6174;DHT22;3120;48.796;9.796;2022-09-23T08:05:44;12.10;1.00
6174;DHT22;3120;48.796;9.796;2022-09-23T08:08:11;12.60;99.90
6174;DHT22;3120;48.796;9.796;2022-09-23T08:10:38;12.30;1.00
6174;DHT22;3120;48.796;9.796;2022-09-23T08:13:04;12.60;1.00
6174;DHT22;3120;48.796;9.796;2022-09-23T08:15:29;12.80;1.00
6174;DHT22;3120;48.796;9.796;2022-09-23T08:17:58;13.60;1.00
6174;DHT22;3120;48.796;9.796;2022-09-23T08:20:25;13.00;99.90
6174;DHT22;3120;48.796;9.796;2022-09-23T08:23:10;13.40;99.90
6174;DHT22;3120;48.796;9.796;2022-09-23T08:25:39;13.50;99.90
6174;DHT22;3120;48.796;9.796;2022-09-23T08:28:05;13.70;48.90
6174;DHT22;3120;48.796;9.796;2022-09-23T08:30:31;14.30;1.00
6174;DHT22;3120;48.796;9.796;2022-09-23T08:32:56;14.40;29.40
6174;DHT22;3120;48.796;9.796;2022-09-23T08:35:22;14.70;1.00
6174;DHT22;3120;48.796;9.796;2022-09-23T08:37:47;15.10;99.90
6174;DHT22;3120;48.796;9.796;2022-09-23T08:40:13;15.60;99.90
6174;DHT22;3120;48.796;9.796;2022-09-23T08:42:41;15.80;99.90
6174;DHT22;3120;48.796;9.796;2022-09-23T08:45:18;16.00;99.90
6174;DHT22;3120;48.796;9.796;2022-09-23T08:53:04;16.40;99.90
6174;DHT22;3120;48.796;9.796;2022-09-23T08:55:34;16.50;99.90
6174;DHT22;3120;48.796;9.796;2022-09-23T08:58:26;16.40;99.90
6174;DHT22;3120;48.796;9.796;2022-09-23T09:03:46;16.40;99.90
6174;DHT22;3120;48.796;9.796;2022-09-23T09:06:35;16.40;99.90
6174;DHT22;3120;48.796;9.796;2022-09-23T09:09:05;16.40;99.90
6174;DHT22;3120;48.796;9.796;2022-09-23T09:11:39;16.40;99.90
6174;DHT22;3120;48.796;9.796;2022-09-23T09:17:09;16.50;99.90
6174;DHT22;3120;48.796;9.796;2022-09-23T09:19:53;16.50;99.90
6174;DHT22;3120;48.796;9.796;2022-09-23T09:22:55;16.60;99.90
6174;DHT22;3120;48.796;9.796;2022-09-23T09:29:13;16.90;99.90
6174;DHT22;3120;48.796;9.796;2022-09-23T09:34:03;17.20;15.30
6174;DHT22;3120;48.796;9.796;2022-09-23T09:39:05;17.70;35.30
6174;DHT22;3120;48.796;9.796;2022-09-23T09:41:34;18.20;1.00
6174;DHT22;3120;48.796;9.796;2022-09-23T09:44:00;18.00;1.00
6174;DHT22;3120;48.796;9.796;2022-09-23T09:49:53;18.20;1.00
6174;DHT22;3120;48.796;9.796;2022-09-23T09:52:25;18.30;1.00
6174;DHT22;3120;48.796;9.796;2022-09-23T09:54:56;18.30;1.00
6174;DHT22;3120;48.796;9.796;2022-09-23T09:57:47;18.20;1.00
6174;DHT22;3120;48.796;9.796;2022-09-23T10:02:53;18.40;1.00
6174;DHT22;3120;48.796;9.796;2022-09-23T10:05:31;18.50;1.00
6174;DHT22;3120;48.796;9.796;2022-09-23T10:08:21;18.60;1.00
6174;DHT22;3120;48.796;9.796;2022-09-23T10:13:22;18.70;1.00
6174;DHT22;3120;48.796;9.796;2022-09-23T10:19:26;18.90;1.00
6174;DHT22;3120;48.796;9.796;2022-09-23T10:21:54;18.80;1.00
6174;DHT22;3120;48.796;9.796;2022-09-23T10:24:33;18.70;1.00
6174;DHT22;3120;48.796;9.796;2022-09-23T10:27:04;18.80;1.00
6174;DHT22;3120;48.796;9.796;2022-09-23T10:29:48;18.80;1.00
6174;DHT22;3120;48.796;9.796;2022-09-23T10:32:27;18.80;1.00
6174;DHT22;3120;48.796;9.796;2022-09-23T10:37:49;18.60;1.00
6174;DHT22;3120;48.796;9.796;2022-09-23T10:40:23;18.50;1.00
6174;DHT22;3120;48.796;9.796;2022-09-23T10:43:19;18.20;1.00
6174;DHT22;3120;48.796;9.796;2022-09-23T10:46:09;18.30;1.00
6174;DHT22;3120;48.796;9.796;2022-09-23T10:57:00;18.80;1.00
6174;DHT22;3120;48.796;9.796;2022-09-23T11:00:08;19.00;1.00
6174;DHT22;3120;48.796;9.796;2022-09-23T11:16:41;19.40;1.00
6174;DHT22;3120;48.796;9.796;2022-09-23T11:22:14;19.30;1.00
6174;DHT22;3120;48.796;9.796;2022-09-23T11:33:36;19.50;1.00
6174;DHT22;3120;48.796;9.796;2022-09-23T11:36:35;19.60;1.00
6174;DHT22;3120;48.796;9.796;2022-09-23T11:39:25;19.40;1.00
6174;DHT22;3120;48.796;9.796;2022-09-23T11:41:55;19.30;1.00
6174;DHT22;3120;48.796;9.796;2022-09-23T11:44:32;19.40;1.00
6174;DHT22;3120;48.796;9.796;2022-09-23T11:47:06;19.10;1.00
6174;DHT22;3120;48.796;9.796;2022-09-23T11:49:40;18.90;1.00
6174;DHT22;3120;48.796;9.796;2022-09-23T11:54:59;18.80;1.00
6174;DHT22;3120;48.796;9.796;2022-09-23T11:57:33;18.90;1.00
6174;DHT22;3120;48.796;9.796;2022-09-23T12:00:27;18.90;1.00
6174;DHT22;3120;48.796;9.796;2022-09-23T12:03:07;18.70;1.00
6174;DHT22;3120;48.796;9.796;2022-09-23T12:05:49;18.80;1.00
6174;DHT22;3120;48.796;9.796;2022-09-23T12:16:54;19.10;1.00
6174;DHT22;3120;48.796;9.796;2022-09-23T12:25:32;19.00;1.00
6174;DHT22;3120;48.796;9.796;2022-09-23T12:28:05;18.90;1.00
6174;DHT22;3120;48.796;9.796;2022-09-23T12:30:36;18.80;1.00
6174;DHT22;3120;48.796;9.796;2022-09-23T12:33:07;18.80;1.00
6174;DHT22;3120;48.796;9.796;2022-09-23T12:35:41;18.90;1.00
6174;DHT22;3120;48.796;9.796;2022-09-23T12:38:20;18.80;1.00
6174;DHT22;3120;48.796;9.796;2022-09-23T12:40:47;18.60;1.00
6174;DHT22;3120;48.796;9.796;2022-09-23T12:45:54;18.90;1.00
6174;DHT22;3120;48.796;9.796;2022-09-23T12:48:57;19.00;1.00
6174;DHT22;3120;48.796;9.796;2022-09-23T12:51:26;19.20;1.00
6174;DHT22;3120;48.796;9.796;2022-09-23T12:56:25;19.20;1.00
6174;DHT22;3120;48.796;9.796;2022-09-23T12:59:29;19.10;1.00
6174;DHT22;3120;48.796;9.796;2022-09-23T13:05:02;19.10;1.00
6174;DHT22;3120;48.796;9.796;2022-09-23T13:07:49;19.00;1.00
6174;DHT22;3120;48.796;9.796;2022-09-23T13:12:49;19.00;1.00
6174;DHT22;3120;48.796;9.796;2022-09-23T13:15:27;19.00;1.00
6174;DHT22;3120;48.796;9.796;2022-09-23T13:20:41;18.90;1.00
6174;DHT22;3120;48.796;9.796;2022-09-23T13:25:39;19.00;1.00
6174;DHT22;3120;48.796;9.796;2022-09-23T13:28:30;19.00;1.00
6174;DHT22;3120;48.796;9.796;2022-09-23T13:30:56;20.20;1.00
6174;DHT22;3120;48.796;9.796;2022-09-23T13:33:30;19.90;1.00
6174;DHT22;3120;48.796;9.796;2022-09-23T13:36:02;19.00;1.00
6174;DHT22;3120;48.796;9.796;2022-09-23T13:38:33;19.00;1.00
6174;DHT22;3120;48.796;9.796;2022-09-23T13:41:08;19.10;1.00
6174;DHT22;3120;48.796;9.796;2022-09-23T13:43:39;20.10;1.00
6174;DHT22;3120;48.796;9.796;2022-09-23T13:46:17;19.50;1.00
6174;DHT22;3120;48.796;9.796;2022-09-23T13:48:45;18.90;1.00
6174;DHT22;3120;48.796;9.796;2022-09-23T13:51:20;18.90;1.00
6174;DHT22;3120;48.796;9.796;2022-09-23T13:53:52;18.80;1.00
6174;DHT22;3120;48.796;9.796;2022-09-23T13:56:19;18.90;1.00
6174;DHT22;3120;48.796;9.796;2022-09-23T13:58:45;18.90;1.00
6174;DHT22;3120;48.796;9.796;2022-09-23T14:01:30;19.40;1.00
6174;DHT22;3120;48.796;9.796;2022-09-23T14:03:57;18.90;1.00
6174;DHT22;3120;48.796;9.796;2022-09-23T14:06:24;19.00;1.00
6174;DHT22;3120;48.796;9.796;2022-09-23T14:08:52;19.00;1.00
6174;DHT22;3120;48.796;9.796;2022-09-23T14:11:20;19.40;1.00
6174;DHT22;3120;48.796;9.796;2022-09-23T14:13:48;19.00;1.00
6174;DHT22;3120;48.796;9.796;2022-09-23T14:16:20;19.00;1.00
6174;DHT22;3120;48.796;9.796;2022-09-23T14:18:48;19.10;1.00
6174;DHT22;3120;48.796;9.796;2022-09-23T14:23:50;19.20;1.00
6174;DHT22;3120;48.796;9.796;2022-09-23T14:26:17;18.80;1.00
6174;DHT22;3120;48.796;9.796;2022-09-23T14:28:43;18.80;1.00
6174;DHT22;3120;48.796;9.796;2022-09-23T14:31:10;20.70;1.00
6174;DHT22;3120;48.796;9.796;2022-09-23T14:33:39;19.10;1.00
6174;DHT22;3120;48.796;9.796;2022-09-23T14:36:07;18.70;1.00
6174;DHT22;3120;48.796;9.796;2022-09-23T14:39:01;18.70;1.00
6174;DHT22;3120;48.796;9.796;2022-09-23T14:41:26;18.70;1.00
6174;DHT22;3120;48.796;9.796;2022-09-23T14:43:59;18.70;1.00
6174;DHT22;3120;48.796;9.796;2022-09-23T14:46:31;20.10;1.00
6174;DHT22;3120;48.796;9.796;2022-09-23T14:56:55;18.80;1.00
6174;DHT22;3120;48.796;9.796;2022-09-23T14:59:31;18.90;1.00
6174;DHT22;3120;48.796;9.796;2022-09-23T15:01:57;18.90;1.00
6174;DHT22;3120;48.796;9.796;2022-09-23T15:07:15;19.20;1.00
6174;DHT22;3120;48.796;9.796;2022-09-23T15:09:43;18.90;1.00
6174;DHT22;3120;48.796;9.796;2022-09-23T15:12:14;18.90;1.00
6174;DHT22;3120;48.796;9.796;2022-09-23T15:14:43;18.90;1.00
6174;DHT22;3120;48.796;9.796;2022-09-23T15:17:31;18.90;1.00
6174;DHT22;3120;48.796;9.796;2022-09-23T15:20:04;19.00;1.00
6174;DHT22;3120;48.796;9.796;2022-09-23T15:22:30;19.00;1.00
6174;DHT22;3120;48.796;9.796;2022-09-23T15:25:15;18.90;1.00
6174;DHT22;3120;48.796;9.796;2022-09-23T15:27:55;18.90;1.00
6174;DHT22;3120;48.796;9.796;2022-09-23T15:30:21;18.80;1.00
6174;DHT22;3120;48.796;9.796;2022-09-23T15:32:46;18.80;1.00
6174;DHT22;3120;48.796;9.796;2022-09-23T15:35:17;19.30;1.00
6174;DHT22;3120;48.796;9.796;2022-09-23T15:37:45;18.80;1.00
6174;DHT22;3120;48.796;9.796;2022-09-23T15:40:32;20.40;19.40
6174;DHT22;3120;48.796;9.796;2022-09-23T15:42:59;18.80;16.60
6174;DHT22;3120;48.796;9.796;2022-09-23T15:45:29;18.80;2.00
6174;DHT22;3120;48.796;9.796;2022-09-23T15:47:58;18.80;3.30
6174;DHT22;3120;48.796;9.796;2022-09-23T15:50:26;18.70;23.70
6174;DHT22;3120;48.796;9.796;2022-09-23T15:52:52;18.60;23.00
6174;DHT22;3120;48.796;9.796;2022-09-23T15:55:19;18.80;28.80
6174;DHT22;3120;48.796;9.796;2022-09-23T15:57:48;18.60;44.40
6174;DHT22;3120;48.796;9.796;2022-09-23T16:00:15;18.40;63.70
6174;DHT22;3120;48.796;9.796;2022-09-23T16:02:42;18.80;90.70
6174;DHT22;3120;48.796;9.796;2022-09-23T16:05:30;18.30;92.50
6174;DHT22;3120;48.796;9.796;2022-09-23T16:07:59;18.20;90.20
6174;DHT22;3120;48.796;9.796;2022-09-23T16:10:25;18.20;99.90
6174;DHT22;3120;48.796;9.796;2022-09-23T16:12:53;18.10;99.90
6174;DHT22;3120;48.796;9.796;2022-09-23T16:15:20;18.30;93.70
6174;DHT22;3120;48.796;9.796;2022-09-23T16:17:46;17.90;99.90
6174;DHT22;3120;48.796;9.796;2022-09-23T16:20:13;17.90;99.90
6174;DHT22;3120;48.796;9.796;2022-09-23T16:22:55;18.20;99.90
6174;DHT22;3120;48.796;9.796;2022-09-23T16:25:23;17.80;1.00
6174;DHT22;3120;48.796;9.796;2022-09-23T16:27:53;17.70;99.90
6174;DHT22;3120;48.796;9.796;2022-09-23T16:30:27;17.60;1.00
6174;DHT22;3120;48.796;9.796;2022-09-23T16:32:54;17.50;1.00
6174;DHT22;3120;48.796;9.796;2022-09-23T16:35:23;17.40;99.90
6174;DHT22;3120;48.796;9.796;2022-09-23T16:37:50;17.40;99.90
6174;DHT22;3120;48.796;9.796;2022-09-23T16:40:18;17.50;99.90
6174;DHT22;3120;48.796;9.796;2022-09-23T16:42:48;17.20;99.90
6174;DHT22;3120;48.796;9.796;2022-09-23T16:45:17;17.30;99.90
6174;DHT22;3120;48.796;9.796;2022-09-23T16:47:45;17.10;1.00
6174;DHT22;3120;48.796;9.796;2022-09-23T16:50:12;16.80;1.00
6174;DHT22;3120;48.796;9.796;2022-09-23T16:52:38;17.20;99.90
6174;DHT22;3120;48.796;9.796;2022-09-23T16:55:05;16.70;99.90
6174;DHT22;3120;48.796;9.796;2022-09-23T16:57:33;16.60;99.90
6174;DHT22;3120;48.796;9.796;2022-09-23T16:59:59;18.20;1.00
6174;DHT22;3120;48.796;9.796;2022-09-23T17:02:43;16.40;99.90
6174;DHT22;3120;48.796;9.796;2022-09-23T17:05:27;17.70;99.90
6174;DHT22;3120;48.796;9.796;2022-09-23T17:07:53;16.30;1.00
6174;DHT22;3120;48.796;9.796;2022-09-23T17:10:19;16.20;99.90
6174;DHT22;3120;48.796;9.796;2022-09-23T17:12:46;16.00;1.00
6174;DHT22;3120;48.796;9.796;2022-09-23T17:15:11;16.20;99.90
6174;DHT22;3120;48.796;9.796;2022-09-23T17:17:37;17.20;1.00
6174;DHT22;3120;48.796;9.796;2022-09-23T17:20:04;15.70;1.00
6174;DHT22;3120;48.796;9.796;2022-09-23T17:22:32;15.70;99.90
6174;DHT22;3120;48.796;9.796;2022-09-23T17:24:59;15.60;99.90
6174;DHT22;3120;48.796;9.796;2022-09-23T17:27:26;16.90;99.90
6174;DHT22;3120;48.796;9.796;2022-09-23T17:29:52;15.40;99.90
6174;DHT22;3120;48.796;9.796;2022-09-23T17:32:17;16.00;1.00
6174;DHT22;3120;48.796;9.796;2022-09-23T17:34:43;15.30;1.00
6174;DHT22;3120;48.796;9.796;2022-09-23T17:37:09;15.80;1.00
6174;DHT22;3120;48.796;9.796;2022-09-23T17:39:36;15.20;1.00
6174;DHT22;3120;48.796;9.796;2022-09-23T17:42:02;16.60;1.00
6174;DHT22;3120;48.796;9.796;2022-09-23T17:44:28;14.80;1.00
6174;DHT22;3120;48.796;9.796;2022-09-23T17:46:54;15.70;1.00
6174;DHT22;3120;48.796;9.796;2022-09-23T17:49:20;14.90;1.00
6174;DHT22;3120;48.796;9.796;2022-09-23T17:51:48;14.90;1.00
6174;DHT22;3120;48.796;9.796;2022-09-23T17:54:14;16.30;1.00
6174;DHT22;3120;48.796;9.796;2022-09-23T17:56:40;14.80;1.00
6174;DHT22;3120;48.796;9.796;2022-09-23T17:59:09;14.80;1.00
6174;DHT22;3120;48.796;9.796;2022-09-23T18:01:36;15.90;1.00
6174;DHT22;3120;48.796;9.796;2022-09-23T18:04:01;15.90;1.00
6174;DHT22;3120;48.796;9.796;2022-09-23T18:06:31;17.50;1.00
6174;DHT22;3120;48.796;9.796;2022-09-23T18:08:58;14.40;3.40
6174;DHT22;3120;48.796;9.796;2022-09-23T18:11:31;14.40;19.70
6174;DHT22;3120;48.796;9.796;2022-09-23T18:14:02;14.70;35.40
6174;DHT22;3120;48.796;9.796;2022-09-23T18:16:38;15.00;38.40
6174;DHT22;3120;48.796;9.796;2022-09-23T18:19:06;14.40;29.90
6174;DHT22;3120;48.796;9.796;2022-09-23T18:21:37;14.30;38.00
6174;DHT22;3120;48.796;9.796;2022-09-23T18:24:04;14.30;43.30
6174;DHT22;3120;48.796;9.796;2022-09-23T18:26:30;14.20;56.90
6174;DHT22;3120;48.796;9.796;2022-09-23T18:28:57;16.60;64.60
6174;DHT22;3120;48.796;9.796;2022-09-23T18:31:30;14.10;74.30
6174;DHT22;3120;48.796;9.796;2022-09-23T18:34:00;14.10;85.40
6174;DHT22;3120;48.796;9.796;2022-09-23T18:36:26;14.70;84.60
6174;DHT22;3120;48.796;9.796;2022-09-23T18:38:53;13.90;99.90
6174;DHT22;3120;48.796;9.796;2022-09-23T18:41:19;14.40;99.90
6174;DHT22;3120;48.796;9.796;2022-09-23T18:43:45;13.80;99.90
6174;DHT22;3120;48.796;9.796;2022-09-23T18:46:19;13.80;99.90
6174;DHT22;3120;48.796;9.796;2022-09-23T18:48:45;14.60;99.90
6174;DHT22;3120;48.796;9.796;2022-09-23T18:51:30;13.80;99.90
6174;DHT22;3120;48.796;9.796;2022-09-23T18:53:58;13.70;99.90
6174;DHT22;3120;48.796;9.796;2022-09-23T18:56:29;13.60;99.90
6174;DHT22;3120;48.796;9.796;2022-09-23T18:58:58;13.60;99.90
6174;DHT22;3120;48.796;9.796;2022-09-23T19:01:23;13.50;99.90
6174;DHT22;3120;48.796;9.796;2022-09-23T19:03:54;13.40;99.90
6174;DHT22;3120;48.796;9.796;2022-09-23T19:06:20;15.10;99.90
6174;DHT22;3120;48.796;9.796;2022-09-23T19:08:50;14.00;99.90
6174;DHT22;3120;48.796;9.796;2022-09-23T19:11:16;14.70;99.90
6174;DHT22;3120;48.796;9.796;2022-09-23T19:13:41;13.30;99.90
6174;DHT22;3120;48.796;9.796;2022-09-23T19:16:08;13.20;99.90